Time;durP1;ratioP1;P1;durP2;ratioP2;P2;SDS_P1;SDS_P2;PMS_P1;PMS_P2;Temp;Humidity;BMP_temperature;BMP_pressure;BME280_temperature;BME280_humidity;BME280_pressure;Samples;Min_cycle;Max_cycle;Signal;HPM_P1;HPM_P2
2022/08/15 00:01:32;;;;;;;10.40;7.35;;;;;;;17.73;89.27;93984.83;1747941;81;21430;-50
2022/08/15 00:04:01;;;;;;;13.27;7.37;;;;;;;17.69;89.39;93984.95;1752731;80;20966;-51
2022/08/15 00:06:36;;;;;;;11.03;6.90;;;;;;;17.64;90.01;93984.35;1747397;81;21454;-50
2022/08/15 00:09:07;;;;;;;13.53;7.33;;;;;;;17.66;90.35;93981.81;1706899;82;21502;-53
2022/08/15 00:11:38;;;;;;;11.28;7.67;;;;;;;17.67;90.45;93978.50;1737045;79;21234;-52
2022/08/15 00:14:16;;;;;;;9.60;7.83;;;;;;;17.69;90.38;93978.77;1752121;81;21017;-50
2022/08/15 00:16:44;;;;;;;13.13;7.78;;;;;;;17.69;90.63;93982.17;1741866;79;21251;-52
2022/08/15 00:19:15;;;;;;;9.30;7.15;;;;;;;17.70;90.59;93976.73;1755048;81;20990;-52
2022/08/15 00:21:47;;;;;;;11.03;7.47;;;;;;;17.68;90.30;93971.67;1749952;80;21089;-52
2022/08/15 00:24:18;;;;;;;13.35;8.08;;;;;;;17.67;90.33;93972.20;1751548;80;21215;-51
2022/08/15 00:26:48;;;;;;;11.12;7.28;;;;;;;17.67;90.38;93970.16;1749272;81;20986;-51
2022/08/15 00:29:16;;;;;;;14.65;8.15;;;;;;;17.69;90.49;93966.88;1750738;81;20994;-51
2022/08/15 00:31:44;;;;;;;13.20;8.03;;;;;;;17.69;90.46;93975.22;1748737;81;21498;-51
2022/08/15 00:34:15;;;;;;;8.55;6.00;;;;;;;17.65;90.53;93973.34;1756197;81;21036;-51
2022/08/15 00:36:43;;;;;;;8.50;6.55;;;;;;;17.60;90.68;93979.66;1755732;81;21773;-51
2022/08/15 00:39:11;;;;;;;11.83;6.97;;;;;;;17.55;90.85;93979.83;1753954;81;20955;-52
2022/08/15 00:41:39;;;;;;;9.35;6.53;;;;;;;17.50;90.96;93975.66;1750316;80;20950;-51
2022/08/15 00:44:15;;;;;;;10.85;6.58;;;;;;;17.50;90.89;93984.00;1707493;82;21525;-51
2022/08/15 00:46:47;;;;;;;20.35;7.65;;;;;;;17.50;90.89;93984.00;1725344;82;21090;-52
2022/08/15 00:49:15;;;;;;;13.07;7.10;;;;;;;17.52;91.06;93989.81;1730472;82;21131;-51
2022/08/15 00:51:55;;;;;;;7.65;6.00;;;;;;;17.54;91.17;93988.05;1725635;82;20963;-51
2022/08/15 00:54:31;;;;;;;15.58;7.62;;;;;;;17.54;91.26;93981.09;1711703;83;21050;-50
2022/08/15 00:57:06;;;;;;;12.13;7.58;;;;;;;17.49;91.29;93981.10;1712305;81;21014;-51
2022/08/15 00:59:40;;;;;;;13.68;7.22;;;;;;;17.46;91.57;93986.30;1721915;82;21040;-52
2022/08/15 01:02:10;;;;;;;12.25;7.40;;;;;;;17.46;91.92;93981.48;1732975;82;21972;-52
2022/08/15 01:04:39;;;;;;;11.10;7.62;;;;;;;17.49;91.75;93976.93;1729349;82;21005;-51
2022/08/15 01:07:07;;;;;;;11.63;7.53;;;;;;;17.52;91.86;93972.50;1734557;82;20990;-51
2022/08/15 01:09:37;;;;;;;10.40;6.53;;;;;;;17.57;91.42;93966.78;1731812;82;21022;-51
2022/08/15 01:12:10;;;;;;;7.65;6.47;;;;;;;17.57;91.28;93967.55;1727655;82;20998;-52
2022/08/15 01:14:39;;;;;;;10.75;7.00;;;;;;;17.52;91.42;93979.45;1733998;82;21244;-52
2022/08/15 01:17:08;;;;;;;9.33;6.28;;;;;;;17.46;91.43;93973.78;1721233;82;20943;-51
2022/08/15 01:19:52;;;;;;;10.80;6.92;;;;;;;17.42;91.66;93974.69;1725475;81;20954;-51
2022/08/15 01:22:38;;;;;;;8.78;6.90;;;;;;;17.40;91.85;93978.58;1749731;81;20975;-51
2022/08/15 01:25:20;;;;;;;15.43;7.20;;;;;;;17.36;92.03;93983.66;1751013;81;21486;-51
2022/08/15 01:27:58;;;;;;;11.43;6.55;;;;;;;17.37;92.56;93985.16;1753492;81;21882;-51
2022/08/15 01:30:42;;;;;;;11.80;6.62;;;;;;;17.44;92.52;93986.05;1749559;81;21065;-50
2022/08/15 01:33:10;;;;;;;9.60;6.92;;;;;;;17.46;92.20;93985.65;1745866;80;21104;-57
2022/08/15 01:35:39;;;;;;;11.78;6.50;;;;;;;17.53;92.07;93982.98;1754287;81;21492;-51
2022/08/15 01:38:22;;;;;;;9.28;6.65;;;;;;;17.54;91.53;93974.76;1750028;79;21674;-51
2022/08/15 01:41:06;;;;;;;8.18;6.12;;;;;;;17.50;91.36;93981.97;1749423;81;21528;-51
2022/08/15 01:43:38;;;;;;;6.65;5.95;;;;;;;17.45;91.38;93974.41;1754662;81;21596;-52
2022/08/15 01:46:07;;;;;;;12.07;6.53;;;;;;;17.40;91.69;93967.45;1750876;81;21102;-51
2022/08/15 01:48:47;;;;;;;10.50;7.62;;;;;;;17.44;91.90;93973.54;1752795;79;21054;-51
2022/08/15 01:51:17;;;;;;;9.95;7.10;;;;;;;17.45;91.78;93969.49;1744456;81;21049;-51
2022/08/15 01:53:59;;;;;;;7.22;6.22;;;;;;;17.42;91.70;93967.08;1727925;82;21125;-51
2022/08/15 01:56:29;;;;;;;16.12;6.50;;;;;;;17.39;91.43;93965.33;1707004;81;21049;-51
2022/08/15 01:59:05;;;;;;;11.08;6.60;;;;;;;17.34;91.36;93959.77;1724663;82;21119;-52
2022/08/15 02:01:52;;;;;;;12.05;8.43;;;;;;;17.32;91.59;93966.45;1725395;82;21096;-51
2022/08/15 02:04:25;;;;;;;12.33;6.97;;;;;;;17.32;91.92;93977.57;1729408;82;21140;-51
2022/08/15 02:06:53;;;;;;;8.95;6.95;;;;;;;17.35;92.21;93980.13;1731453;82;21319;-52
2022/08/15 02:09:21;;;;;;;11.93;6.87;;;;;;;17.35;91.86;93984.30;1730545;82;20990;-51
2022/08/15 02:11:50;;;;;;;9.43;6.70;;;;;;;17.34;91.95;93986.96;1732738;82;21038;-50
2022/08/15 02:14:20;;;;;;;10.28;6.85;;;;;;;17.35;92.37;93984.92;1723594;82;21078;-52
2022/08/15 02:16:48;;;;;;;12.15;8.13;;;;;;;17.36;92.62;93978.86;1724027;82;21533;-55
2022/08/15 02:19:17;;;;;;;10.45;7.70;;;;;;;17.40;92.81;93982.75;1725653;82;21872;-52
2022/08/15 02:21:47;;;;;;;7.97;6.70;;;;;;;17.43;92.40;93972.03;1737192;82;21115;-51
2022/08/15 02:24:23;;;;;;;10.65;7.53;;;;;;;17.43;92.10;93969.98;1704001;83;21499;-51
2022/08/15 02:26:53;;;;;;;10.60;6.95;;;;;;;17.39;91.96;93971.51;1729500;82;21148;-51
2022/08/15 02:29:25;;;;;;;10.93;7.85;;;;;;;17.30;92.21;93975.94;1728576;82;21017;-51
2022/08/15 02:31:59;;;;;;;11.43;8.25;;;;;;;17.25;92.59;93976.71;1725805;82;21105;-51
2022/08/15 02:34:27;;;;;;;14.10;8.13;;;;;;;17.20;92.68;93967.73;1711209;82;21050;-51
2022/08/15 02:36:56;;;;;;;10.00;6.87;;;;;;;17.16;92.76;93970.78;1724672;82;21051;-53
2022/08/15 02:39:26;;;;;;;9.50;6.85;;;;;;;17.19;92.65;93975.95;1731345;82;21066;-53
2022/08/15 02:41:55;;;;;;;13.43;7.28;;;;;;;17.18;92.55;93979.37;1754903;81;21104;-52
2022/08/15 02:44:22;;;;;;;7.47;6.53;;;;;;;17.18;92.64;93975.20;1749885;79;21256;-52
2022/08/15 02:46:53;;;;;;;12.18;6.65;;;;;;;17.19;92.46;93980.11;1752174;81;20955;-51
2022/08/15 02:49:22;;;;;;;12.13;6.45;;;;;;;17.15;92.34;93982.40;1750890;79;21006;-51
2022/08/15 02:51:50;;;;;;;12.55;6.80;;;;;;;17.11;92.43;93982.65;1748352;80;20965;-54
2022/08/15 02:54:20;;;;;;;9.08;5.83;;;;;;;17.09;92.39;93984.44;1749257;80;21471;-50
2022/08/15 02:56:49;;;;;;;12.60;7.10;;;;;;;17.04;92.51;93992.90;1748104;80;22133;-50
2022/08/15 02:59:17;;;;;;;12.07;6.65;;;;;;;16.98;92.59;93992.77;1723697;81;21064;-52
2022/08/15 03:01:45;;;;;;;8.65;5.80;;;;;;;16.94;92.73;93993.02;1753694;79;21017;-51
2022/08/15 03:04:17;;;;;;;9.15;6.08;;;;;;;16.90;93.02;93993.91;1749747;79;21046;-52
2022/08/15 03:06:45;;;;;;;7.40;5.70;;;;;;;16.92;93.24;93992.03;1752396;80;21089;-51
2022/08/15 03:09:14;;;;;;;7.72;7.03;;;;;;;16.99;93.29;93992.90;1752737;80;21577;-51
2022/08/15 03:11:50;;;;;;;8.88;7.30;;;;;;;17.04;93.17;93981.02;1747230;79;21068;-50
2022/08/15 03:14:21;;;;;;;10.45;7.62;;;;;;;17.03;92.75;93983.66;1723065;81;20958;-51
2022/08/15 03:16:49;;;;;;;11.25;6.60;;;;;;;16.98;92.69;93978.88;1754476;79;21501;-51
2022/08/15 03:19:24;;;;;;;17.62;6.92;;;;;;;16.93;92.81;93971.31;1749178;80;21006;-51
2022/08/15 03:21:52;;;;;;;10.68;5.78;;;;;;;16.90;93.35;93980.67;1753354;81;21137;-52
2022/08/15 03:24:19;;;;;;;13.90;7.17;;;;;;;16.86;93.64;93975.35;1751486;81;21423;-52
2022/08/15 03:26:47;;;;;;;11.53;6.45;;;;;;;16.82;93.77;93973.47;1751760;81;21045;-52
2022/08/15 03:29:18;;;;;;;10.13;6.45;;;;;;;16.79;94.07;93975.88;1749298;81;21534;-52
2022/08/15 03:31:48;;;;;;;7.55;5.70;;;;;;;16.80;94.40;93974.61;1752348;81;21026;-51
2022/08/15 03:34:22;;;;;;;11.30;5.90;;;;;;;16.81;94.28;93976.73;1751116;80;21149;-52
2022/08/15 03:36:50;;;;;;;;;;;;;;;16.81;94.27;93981.68;1725982;82;20967;-52
2022/08/15 03:39:18;;;;;;;10.58;5.87;;;;;;;16.82;94.42;93985.20;1752528;81;20452;-52
2022/08/15 03:41:47;;;;;;;14.65;6.60;;;;;;;16.84;94.74;93984.06;1747872;79;21014;-52
2022/08/15 03:44:16;;;;;;;14.80;7.60;;;;;;;16.86;94.34;93980.14;1750350;81;21010;-52
2022/08/15 03:46:44;;;;;;;28.70;20.27;;;;;;;16.84;94.20;93981.28;1744163;79;21147;-52
2022/08/15 03:49:15;;;;;;;30.52;19.60;;;;;;;16.85;94.47;93973.84;1744346;79;21096;-51
2022/08/15 03:51:43;;;;;;;30.97;23.02;;;;;;;16.90;94.41;93973.72;1727387;81;21005;-53
2022/08/15 03:54:13;;;;;;;26.12;19.10;;;;;;;16.92;94.38;93972.58;1741991;81;21120;-52
2022/08/15 03:56:42;;;;;;;31.25;19.85;;;;;;;16.93;94.45;93967.14;1695135;82;20961;-52
2022/08/15 03:59:14;;;;;;;22.00;16.17;;;;;;;16.96;94.76;93970.30;1726926;81;21151;-52
2022/08/15 04:01:44;;;;;;;21.05;15.72;;;;;;;17.03;94.14;93965.61;1753453;79;20954;-52
2022/08/15 04:04:12;;;;;;;19.80;13.38;;;;;;;17.07;93.71;93965.48;1750224;81;20974;-54
2022/08/15 04:06:42;;;;;;;17.35;13.05;;;;;;;17.12;93.66;93972.30;1749393;80;21174;-53
2022/08/15 04:09:10;;;;;;;19.77;14.40;;;;;;;17.15;93.48;93969.89;1725286;82;21014;-54
2022/08/15 04:11:39;;;;;;;30.52;13.65;;;;;;;17.15;93.30;93969.27;1699369;83;21230;-52
2022/08/15 04:14:08;;;;;;;16.37;11.60;;;;;;;17.15;93.03;93968.50;1685202;82;21093;-53
2022/08/15 04:16:37;;;;;;;25.05;13.53;;;;;;;17.15;93.25;93967.11;1723660;82;21045;-52
2022/08/15 04:19:05;;;;;;;20.35;13.98;;;;;;;17.19;93.43;93971.16;1727320;82;21510;-52
2022/08/15 04:21:34;;;;;;;25.50;15.15;;;;;;;17.27;93.53;93971.40;1696426;83;21133;-52
2022/08/15 04:24:03;;;;;;;20.95;15.55;;;;;;;17.35;93.23;93958.50;1707141;81;21882;-53
2022/08/15 04:26:30;;;;;;;19.82;13.55;;;;;;;17.42;92.97;93959.39;1733153;82;21058;-52
2022/08/15 04:28:59;;;;;;;14.07;10.93;;;;;;;17.49;92.80;93960.24;1726866;82;21435;-52
2022/08/15 04:31:28;;;;;;;16.15;11.83;;;;;;;17.53;92.09;93959.34;1703945;82;21478;-51
2022/08/15 04:33:55;;;;;;;16.23;10.55;;;;;;;17.51;91.91;93957.09;1720236;82;20966;-51
2022/08/15 04:36:24;;;;;;;15.78;9.75;;;;;;;17.52;92.00;93948.09;1686654;82;21235;-50
2022/08/15 04:38:53;;;;;;;11.53;8.50;;;;;;;17.55;92.10;93947.84;1741803;79;21184;-50
2022/08/15 04:41:21;;;;;;;12.10;7.22;;;;;;;17.60;91.64;93946.28;1752866;81;20973;-48
2022/08/15 04:43:49;;;;;;;9.90;7.85;;;;;;;17.64;90.99;93946.15;1756386;81;21462;-51
2022/08/15 04:46:20;;;;;;;11.97;9.25;;;;;;;17.71;90.49;93939.30;1741339;81;20999;-52
2022/08/15 04:48:48;;;;;;;12.73;8.35;;;;;;;17.75;90.13;93937.00;1745079;79;21318;-50
2022/08/15 04:51:16;;;;;;;15.40;8.23;;;;;;;17.74;89.75;93936.88;1753520;80;21415;-51
2022/08/15 04:53:46;;;;;;;13.03;8.33;;;;;;;17.73;89.57;93945.10;1751168;80;21144;-52
2022/08/15 04:56:15;;;;;;;11.00;8.33;;;;;;;17.68;89.32;93935.50;1756122;81;21088;-52
2022/08/15 04:58:43;;;;;;;21.52;7.95;;;;;;;17.63;89.44;93940.46;1750423;79;20952;-51
2022/08/15 05:01:13;;;;;;;14.60;7.95;;;;;;;17.63;89.55;93942.50;1753709;80;21152;-52
2022/08/15 05:03:43;;;;;;;14.28;7.12;;;;;;;17.60;89.71;93936.55;1749746;80;20931;-52
2022/08/15 05:06:11;;;;;;;21.07;6.97;;;;;;;17.62;89.75;93934.03;1724848;80;21439;-51
2022/08/15 05:08:41;;;;;;;14.70;6.55;;;;;;;17.65;89.59;93937.18;1751364;79;21222;-49
2022/08/15 05:11:14;;;;;;;12.18;6.30;;;;;;;17.66;89.67;93935.27;1751470;81;21006;-51
2022/08/15 05:13:44;;;;;;;18.37;6.30;;;;;;;17.69;89.70;93939.05;1751754;79;21077;-50
2022/08/15 05:16:14;;;;;;;14.63;5.83;;;;;;;17.68;89.41;93938.28;1742624;81;21053;-50
2022/08/15 05:18:43;;;;;;;13.32;6.78;;;;;;;17.66;88.98;93947.04;1748334;81;20954;-50
2022/08/15 05:21:11;;;;;;;9.70;5.72;;;;;;;17.63;88.71;93942.50;1754165;81;20978;-50
2022/08/15 05:23:41;;;;;;;15.28;6.25;;;;;;;17.63;88.99;93946.67;1751799;80;21005;-53
2022/08/15 05:26:10;;;;;;;16.00;6.50;;;;;;;17.71;89.11;93951.20;1753115;79;21305;-50
2022/08/15 05:28:41;;;;;;;17.10;6.50;;;;;;;17.78;88.91;93954.05;1750163;80;20994;-51
2022/08/15 05:31:11;;;;;;;11.18;6.62;;;;;;;17.78;88.88;93954.05;1753095;80;20946;-50
2022/08/15 05:33:40;;;;;;;14.23;6.45;;;;;;;17.80;88.79;93956.45;1749088;79;21013;-50
2022/08/15 05:36:08;;;;;;;11.83;6.45;;;;;;;17.81;88.74;93958.62;1752413;81;21493;-51
2022/08/15 05:38:46;;;;;;;9.50;7.35;;;;;;;17.83;88.70;93956.81;1754390;79;21139;-53
2022/08/15 05:41:40;;;;;;;16.95;8.83;;;;;;;17.83;89.00;93960.99;1741333;81;20943;-51
2022/08/15 05:44:28;;;;;;;14.87;8.18;;;;;;;17.83;89.16;93958.86;1710665;81;21006;-50
2022/08/15 05:47:22;;;;;;;14.45;8.45;;;;;;;17.81;89.41;93957.23;1726125;81;21477;-51
2022/08/15 05:49:58;;;;;;;12.65;8.48;;;;;;;17.80;89.86;93962.67;1729729;80;21135;-52
2022/08/15 05:52:49;;;;;;;12.70;9.70;;;;;;;17.73;90.20;93968.75;1727256;80;22046;-54
2022/08/15 05:55:30;;;;;;;17.62;10.18;;;;;;;17.66;90.78;93978.38;1735144;80;21011;-54
2022/08/15 05:58:27;;;;;;;14.47;9.30;;;;;;;17.61;91.77;93986.77;1750759;81;21093;-52
2022/08/15 06:01:15;;;;;;;21.77;9.35;;;;;;;17.53;92.47;93992.09;1751388;80;21049;-50
2022/08/15 06:03:56;;;;;;;12.65;8.28;;;;;;;17.45;93.33;93992.48;1739788;80;21067;-51
2022/08/15 06:06:28;;;;;;;12.93;9.15;;;;;;;17.42;94.28;93996.93;1732470;80;21794;-55
2022/08/15 06:09:22;;;;;;;20.32;9.73;;;;;;;17.37;94.75;93986.55;1745857;80;21080;-53
2022/08/15 06:11:54;;;;;;;19.02;11.38;;;;;;;17.32;94.95;93988.69;1747046;79;21463;-52
2022/08/15 06:14:38;;;;;;;14.78;9.30;;;;;;;17.27;95.34;93988.81;1709128;81;21093;-54
2022/08/15 06:17:21;;;;;;;32.42;22.30;;;;;;;17.25;94.97;94008.69;1736291;80;21022;-52
2022/08/15 06:19:49;;;;;;;19.67;11.03;;;;;;;17.20;95.67;94005.25;1723450;79;21207;-54
2022/08/15 06:22:31;;;;;;;19.60;10.65;;;;;;;17.20;96.31;93996.91;1759274;79;20951;-52
2022/08/15 06:25:24;;;;;;;11.30;8.48;;;;;;;17.21;97.21;93979.74;1716862;81;21037;-51
2022/08/15 06:27:58;;;;;;;;;;;;;;;17.18;97.21;93973.05;1690191;83;21184;-54
2022/08/15 06:30:55;;;;;;;9.23;6.00;;;;;;;17.14;97.10;93978.11;1696151;82;20191;-54
2022/08/15 06:33:40;;;;;;;10.53;7.15;;;;;;;17.09;97.40;93980.27;1682103;83;21063;-52
2022/08/15 06:36:24;;;;;;;10.80;8.10;;;;;;;17.07;97.61;93979.37;1685857;83;21015;-51
2022/08/15 06:39:01;;;;;;;12.60;7.42;;;;;;;17.08;98.04;93963.47;1681160;83;21089;-52
2022/08/15 06:41:33;;;;;;;12.05;8.15;;;;;;;17.08;98.70;93977.37;1672356;83;21660;-54
2022/08/15 06:44:03;;;;;;;12.30;7.58;;;;;;;17.08;99.43;93975.33;1673686;83;21079;-53
2022/08/15 06:46:35;;;;;;;14.95;8.83;;;;;;;17.12;99.84;93973.05;1680785;83;21313;-57
2022/08/15 06:49:07;;;;;;;17.07;10.15;;;;;;;17.13;99.80;93968.26;1698081;83;21037;-54
2022/08/15 06:51:38;;;;;;;35.73;19.05;;;;;;;17.16;100.00;93986.70;1675132;83;21152;-56
2022/08/15 06:54:06;;;;;;;61.50;34.55;;;;;;;17.12;100.00;93994.54;1653801;83;21507;-52
2022/08/15 06:56:38;;;;;;;100.70;61.88;;;;;;;17.14;100.00;93998.95;1739988;80;20985;-54
2022/08/15 06:59:49;;;;;;;88.30;51.20;;;;;;;17.20;100.00;93989.97;1743190;80;21173;-53
2022/08/15 07:02:40;;;;;;;75.17;47.20;;;;;;;17.27;100.00;93980.48;1744117;80;21109;-53
2022/08/15 07:05:32;;;;;;;44.85;29.02;;;;;;;17.36;100.00;93997.55;1744443;80;21564;-53
2022/08/15 07:08:19;;;;;;;40.58;26.57;;;;;;;17.46;100.00;94002.98;1723697;80;21025;-53
2022/08/15 07:10:52;;;;;;;37.88;22.95;;;;;;;17.50;100.00;93996.52;1727572;81;21116;-54
2022/08/15 07:13:28;;;;;;;30.23;19.87;;;;;;;17.52;100.00;93987.03;1740583;80;21237;-52
2022/08/15 07:16:05;;;;;;;24.80;16.32;;;;;;;17.60;100.00;93992.17;1632105;83;21082;-52
2022/08/15 07:18:39;;;;;;;26.87;16.75;;;;;;;17.72;100.00;93988.88;1745517;80;20990;-52
2022/08/15 07:21:13;;;;;;;21.17;14.35;;;;;;;17.82;100.00;93999.83;1740106;80;21069;-53
2022/08/15 07:24:08;;;;;;;15.25;11.22;;;;;;;17.91;99.96;94000.17;1746021;79;21100;-55
2022/08/15 07:27:04;;;;;;;20.30;11.05;;;;;;;18.00;98.78;93997.12;1710846;80;21775;-52
2022/08/15 07:29:42;;;;;;;17.25;11.83;;;;;;;18.08;97.48;93995.30;1718419;80;21520;-52
2022/08/15 07:32:20;;;;;;;20.85;12.63;;;;;;;18.17;97.03;93984.62;1722769;80;21038;-50
2022/08/15 07:35:13;;;;;;;21.85;13.45;;;;;;;18.28;96.62;93990.91;1732995;80;21128;-56
2022/08/15 07:37:58;;;;;;;17.92;10.98;;;;;;;18.39;95.92;93997.82;1715263;81;21109;-54
2022/08/15 07:40:30;;;;;;;15.18;11.33;;;;;;;18.57;94.86;93999.98;1727714;80;21916;-55
2022/08/15 07:43:01;;;;;;;;;;;;;;;18.70;94.19;93987.63;1721010;81;21881;-55
2022/08/15 07:45:36;;;;;;;18.12;12.18;;;;;;;18.80;94.11;94002.73;1712584;81;20180;-52
2022/08/15 07:48:26;;;;;;;14.18;11.70;;;;;;;18.89;93.42;93996.85;1721476;81;21629;-52
2022/08/15 07:51:22;;;;;;;18.65;11.97;;;;;;;19.05;92.58;94007.09;1693614;81;21062;-52
2022/08/15 07:54:03;;;;;;;16.95;12.47;;;;;;;19.20;92.01;93996.34;1666919;82;21489;-54
2022/08/15 07:56:36;;;;;;;15.35;11.30;;;;;;;19.36;90.95;93992.66;1720786;80;22340;-52
2022/08/15 07:59:21;;;;;;;13.05;8.45;;;;;;;19.47;90.08;93984.81;1699632;82;21182;-55
2022/08/15 08:01:54;;;;;;;14.55;7.55;;;;;;;19.57;89.23;93989.52;1734740;80;21093;-53
2022/08/15 08:04:27;;;;;;;18.32;7.92;;;;;;;19.68;88.14;93987.25;1705585;80;21557;-54
2022/08/15 08:07:21;;;;;;;9.53;7.58;;;;;;;19.75;87.32;93976.26;1721528;80;21336;-52
2022/08/15 08:10:01;;;;;;;10.82;7.60;;;;;;;19.82;86.95;93992.44;1727984;80;21504;-55
2022/08/15 08:12:54;;;;;;;9.03;6.37;;;;;;;19.85;87.71;93991.38;1707152;82;21477;-53
2022/08/15 08:15:29;;;;;;;10.48;6.83;;;;;;;19.95;87.69;93993.91;1722511;79;21517;-53
2022/08/15 08:18:12;;;;;;;10.60;8.60;;;;;;;20.07;87.50;93986.95;1732333;80;21030;-49
2022/08/15 08:20:59;;;;;;;13.13;9.25;;;;;;;20.18;87.89;93992.41;1703160;82;21860;-51
2022/08/15 08:23:31;;;;;;;11.30;9.33;;;;;;;20.30;87.30;93995.93;1743090;80;21045;-53
2022/08/15 08:26:07;;;;;;;15.00;8.88;;;;;;;20.41;87.54;93984.59;1720222;81;21021;-49
2022/08/15 08:28:52;;;;;;;10.23;8.45;;;;;;;20.49;86.78;93977.75;1729938;81;21009;-52
2022/08/15 08:31:34;;;;;;;11.85;8.38;;;;;;;20.54;85.98;93981.13;1740551;80;20955;-56
2022/08/15 08:34:22;;;;;;;10.03;8.23;;;;;;;20.61;85.73;93981.28;1726630;80;21155;-53
2022/08/15 08:37:01;;;;;;;12.35;9.23;;;;;;;20.70;85.00;93983.67;1728947;81;22564;-53
2022/08/15 08:39:45;;;;;;;11.43;8.60;;;;;;;20.68;83.89;93986.87;1730432;81;20993;-51
2022/08/15 08:42:37;;;;;;;12.43;10.00;;;;;;;20.66;83.67;93987.42;1720334;81;21481;-52
2022/08/15 08:45:18;;;;;;;21.15;17.40;;;;;;;20.66;84.10;93988.05;1714195;81;21048;-51
2022/08/15 08:48:10;;;;;;;21.52;15.15;;;;;;;20.67;84.30;93991.73;1703111;82;21254;-51
2022/08/15 08:50:49;;;;;;;19.12;13.85;;;;;;;20.76;84.79;93980.80;1730123;80;21356;-52
2022/08/15 08:53:32;;;;;;;13.93;11.43;;;;;;;20.82;84.06;93984.26;1727896;80;21143;-54
2022/08/15 08:56:09;;;;;;;13.88;9.78;;;;;;;20.85;83.70;93986.02;1746923;80;21415;-52
2022/08/15 08:58:40;;;;;;;11.55;8.70;;;;;;;20.93;83.62;93982.07;1719126;80;21042;-56
2022/08/15 09:01:10;;;;;;;16.95;8.98;;;;;;;21.01;83.58;93971.02;1725071;80;21248;-54
2022/08/15 09:03:47;;;;;;;12.95;8.20;;;;;;;21.10;82.44;93974.17;1716478;81;21064;-53
2022/08/15 09:06:19;;;;;;;16.10;9.93;;;;;;;21.18;82.41;93973.67;1745593;80;21022;-52
2022/08/15 09:08:51;;;;;;;19.37;12.30;;;;;;;21.19;82.58;93959.79;1696982;81;21098;-52
2022/08/15 09:11:47;;;;;;;18.32;11.60;;;;;;;21.17;82.49;93973.56;1753149;80;21171;-59
2022/08/15 09:14:35;;;;;;;18.82;11.75;;;;;;;21.14;82.37;93966.88;1744124;80;21394;-54
2022/08/15 09:17:10;;;;;;;26.30;14.83;;;;;;;21.12;82.89;93967.39;1756488;80;20997;-51
2022/08/15 09:19:56;;;;;;;27.25;17.80;;;;;;;21.06;83.54;93964.57;1698170;82;21545;-51
2022/08/15 09:22:24;;;;;;;35.05;20.62;;;;;;;20.98;83.45;93966.50;1701077;82;21071;-52
2022/08/15 09:24:53;;;;;;;29.98;18.62;;;;;;;20.94;84.30;93965.40;1726330;81;21073;-52
2022/08/15 09:27:41;;;;;;;32.70;20.10;;;;;;;20.98;84.42;93953.28;1709974;82;21990;-55
2022/08/15 09:30:11;;;;;;;29.65;18.92;;;;;;;21.06;84.89;93958.98;1744650;80;21076;-54
2022/08/15 09:33:10;;;;;;;29.32;18.42;;;;;;;21.10;85.01;93958.05;1744321;80;21041;-53
2022/08/15 09:36:18;;;;;;;27.90;18.67;;;;;;;21.20;84.91;93948.70;1753861;79;21197;-51
2022/08/15 09:39:12;;;;;;;28.32;19.57;;;;;;;21.42;84.41;93949.70;1746175;78;21095;-53
2022/08/15 09:42:13;;;;;;;26.90;16.00;;;;;;;21.65;83.91;93948.69;1741052;80;21441;-54
2022/08/15 09:44:51;;;;;;;25.88;15.25;;;;;;;21.91;83.76;93952.88;1705370;81;21269;-55
2022/08/15 09:47:33;;;;;;;24.77;14.47;;;;;;;22.27;83.12;93941.41;1710578;80;21076;-52
2022/08/15 09:50:13;;;;;;;20.48;13.15;;;;;;;22.63;82.60;93939.61;1668687;80;39672;-53
2022/08/15 09:53:12;;;;;;;26.37;15.88;;;;;;;22.93;81.54;93925.91;1727522;80;21025;-54
2022/08/15 09:55:44;;;;;;;22.15;14.10;;;;;;;23.07;80.95;93932.96;1722757;80;21213;-56
2022/08/15 09:58:20;;;;;;;23.80;16.82;;;;;;;23.22;79.67;93937.98;1735115;80;21495;-52
2022/08/15 10:01:05;;;;;;;24.45;15.48;;;;;;;23.37;78.31;93942.31;1736296;80;21072;-53
2022/08/15 10:03:50;;;;;;;22.15;14.23;;;;;;;23.61;78.39;93939.13;1729926;80;21052;-51
2022/08/15 10:06:31;;;;;;;27.22;14.50;;;;;;;23.79;77.50;93933.24;1652067;83;21057;-52
2022/08/15 10:09:16;;;;;;;26.25;15.25;;;;;;;23.97;76.18;93936.47;1705550;83;21819;-52
2022/08/15 10:12:00;;;;;;;16.05;11.75;;;;;;;24.22;75.58;93932.67;1754094;80;21166;-55
2022/08/15 10:15:02;;;;;;;25.60;13.18;;;;;;;24.62;75.43;93940.09;1741350;81;21121;-51
2022/08/15 10:17:39;;;;;;;18.95;11.78;;;;;;;24.99;73.67;93939.44;1704640;82;21090;-54
2022/08/15 10:20:22;;;;;;;17.23;12.45;;;;;;;25.39;70.27;93933.40;1716842;82;21050;-52
2022/08/15 10:22:57;;;;;;;;;;;;;;;25.57;69.02;93937.27;1682533;84;21147;-52
2022/08/15 10:25:36;;;;;;;11.48;9.18;;;;;;;25.81;66.29;93931.70;1723112;81;20218;-52
2022/08/15 10:28:20;;;;;;;10.43;8.50;;;;;;;26.04;66.60;93928.30;1724890;81;21125;-51
2022/08/15 10:31:06;;;;;;;9.78;8.30;;;;;;;26.15;64.24;93925.06;1740381;80;21042;-52
2022/08/15 10:33:38;;;;;;;10.43;7.67;;;;;;;26.38;63.00;93930.63;1753912;80;21060;-52
2022/08/15 10:36:20;;;;;;;13.70;7.75;;;;;;;26.65;61.70;93928.88;1754120;80;21159;-52
2022/08/15 10:38:52;;;;;;;10.80;7.00;;;;;;;26.97;61.05;93923.22;1712530;81;21085;-51
2022/08/15 10:41:37;;;;;;;13.03;7.60;;;;;;;27.46;58.79;93923.30;1715757;81;20955;-52
2022/08/15 10:44:20;;;;;;;8.65;6.85;;;;;;;27.60;56.91;93929.48;1728602;81;21073;-56
2022/08/15 10:47:13;;;;;;;8.58;5.90;;;;;;;27.49;57.47;93920.08;1713473;81;21018;-53
2022/08/15 10:50:09;;;;;;;25.00;7.58;;;;;;;27.39;56.51;93922.03;1730929;82;21221;-52
2022/08/15 10:52:51;;;;;;;12.60;6.85;;;;;;;27.22;57.75;93920.55;1694353;83;20993;-53
2022/08/15 10:55:29;;;;;;;11.13;7.30;;;;;;;27.26;58.18;93913.09;1764875;80;20943;-54
2022/08/15 10:58:00;;;;;;;7.03;5.85;;;;;;;27.45;58.63;93916.15;1724886;82;22175;-55
2022/08/15 11:00:48;;;;;;;9.55;6.05;;;;;;;27.44;58.65;93911.83;1757448;78;20995;-51
2022/08/15 11:03:22;;;;;;;6.45;5.80;;;;;;;27.29;58.53;93901.40;1729310;81;21411;-50
2022/08/15 11:05:59;;;;;;;5.50;4.83;;;;;;;27.10;58.93;93905.39;1743764;80;21380;-53
2022/08/15 11:08:27;;;;;;;11.68;6.35;;;;;;;26.93;59.38;93912.34;1742109;80;21157;-52
2022/08/15 11:11:08;;;;;;;14.68;6.50;;;;;;;26.76;59.58;93907.25;1742267;80;21032;-52
2022/08/15 11:13:35;;;;;;;7.50;5.97;;;;;;;26.58;59.30;93903.59;1728461;80;20964;-53
2022/08/15 11:16:16;;;;;;;8.85;5.95;;;;;;;26.45;59.92;93904.48;1726620;79;21150;-49
2022/08/15 11:18:56;;;;;;;14.35;6.90;;;;;;;26.33;59.54;93904.13;1728104;80;21052;-53
2022/08/15 11:21:43;;;;;;;9.83;6.47;;;;;;;26.25;59.83;93902.66;1742682;80;21517;-50
2022/08/15 11:24:12;;;;;;;9.03;5.60;;;;;;;26.18;61.01;93900.62;1723177;81;21511;-52
2022/08/15 11:26:42;;;;;;;7.03;5.72;;;;;;;26.07;61.24;93899.61;1717028;81;21037;-51
2022/08/15 11:29:19;;;;;;;9.10;6.45;;;;;;;25.91;61.47;93897.41;1695271;81;21964;-52
2022/08/15 11:31:53;;;;;;;13.88;6.00;;;;;;;25.83;61.95;93903.70;1736772;80;21042;-53
2022/08/15 11:34:34;;;;;;;7.85;5.80;;;;;;;25.82;62.61;93897.97;1756286;80;22265;-52
2022/08/15 11:37:19;;;;;;;10.00;6.47;;;;;;;25.85;62.52;93895.45;1724734;80;21024;-57
2022/08/15 11:40:06;;;;;;;6.97;5.72;;;;;;;25.87;63.31;93899.86;1731269;80;22304;-54
2022/08/15 11:42:37;;;;;;;8.90;5.72;;;;;;;25.93;63.30;93899.00;1643466;80;21856;-52
2022/08/15 11:45:11;;;;;;;9.03;5.30;;;;;;;25.93;63.72;93893.36;1738103;80;21424;-53
2022/08/15 11:47:54;;;;;;;8.90;5.75;;;;;;;25.96;64.24;93889.48;1726645;80;21059;-56
2022/08/15 11:50:32;;;;;;;10.32;6.22;;;;;;;25.99;65.23;93886.97;1728200;80;21064;-53
2022/08/15 11:53:02;;;;;;;12.95;6.42;;;;;;;26.07;64.65;93886.92;1714601;80;21017;-56
2022/08/15 11:55:44;;;;;;;11.12;6.10;;;;;;;26.22;62.66;93883.41;1737447;80;21241;-55
2022/08/15 11:58:20;;;;;;;9.25;6.37;;;;;;;26.37;62.04;93886.17;1760699;80;21064;-52
2022/08/15 12:00:53;;;;;;;19.73;6.60;;;;;;;26.46;62.32;93874.27;1752168;80;21537;-53
2022/08/15 12:03:27;;;;;;;8.50;5.90;;;;;;;26.52;62.05;93873.41;1748466;80;21456;-51
2022/08/15 12:05:59;;;;;;;15.45;6.58;;;;;;;26.64;60.97;93871.66;1749944;79;21044;-54